createdAt,value
2022-10-26T00:01:08.531Z,11.70
2022-10-26T00:03:37.008Z,11.68
2022-10-26T00:06:12.517Z,9.30
2022-10-26T00:08:39.440Z,15.68
2022-10-26T00:11:07.295Z,14.20
2022-10-26T00:13:34.599Z,12.50
2022-10-26T00:16:01.476Z,13.02
2022-10-26T00:18:28.394Z,14.20
2022-10-26T00:20:55.109Z,12.85
2022-10-26T00:23:21.944Z,13.10
2022-10-26T00:25:56.785Z,14.38
2022-10-26T00:28:23.805Z,12.68
2022-10-26T00:30:50.879Z,12.43
2022-10-26T00:33:18.039Z,10.57
2022-10-26T00:35:48.375Z,11.67
2022-10-26T00:38:15.486Z,13.40
2022-10-26T00:40:42.285Z,16.33
2022-10-26T00:43:27.121Z,14.52
2022-10-26T00:45:56.793Z,15.00
2022-10-26T00:48:31.204Z,14.80
2022-10-26T00:51:03.094Z,13.63
2022-10-26T00:53:30.737Z,12.05
2022-10-26T00:55:58.325Z,15.50
2022-10-26T00:58:26.253Z,13.82
2022-10-26T01:00:53.523Z,12.70
2022-10-26T01:03:20.839Z,14.10
2022-10-26T01:05:49.683Z,11.52
2022-10-26T01:08:17.400Z,13.27
2022-10-26T01:10:44.845Z,11.07
2022-10-26T01:13:13.319Z,9.70
2022-10-26T01:16:18.338Z,8.85
2022-10-26T01:19:13.493Z,7.93
2022-10-26T01:22:02.023Z,6.20
2022-10-26T01:24:28.699Z,12.02
2022-10-26T01:27:19.880Z,8.33
2022-10-26T01:30:01.178Z,8.45
2022-10-26T01:32:38.875Z,8.60
2022-10-26T01:35:14.115Z,8.82
2022-10-26T01:37:48.183Z,6.88
2022-10-26T01:40:25.367Z,6.63
2022-10-26T01:42:55.430Z,6.97
2022-10-26T01:45:22.433Z,8.13
2022-10-26T01:47:50.230Z,6.82
2022-10-26T01:50:19.862Z,7.30
2022-10-26T01:52:50.579Z,7.43
2022-10-26T01:55:38.948Z,6.40
2022-10-26T01:58:35.163Z,5.63
2022-10-26T02:01:16.670Z,5.97
2022-10-26T02:03:50.010Z,6.57
2022-10-26T02:06:42.182Z,5.47
2022-10-26T02:09:16.931Z,5.78
2022-10-26T02:11:47.125Z,5.93
2022-10-26T02:14:49.873Z,9.13
2022-10-26T02:17:34.859Z,7.30
2022-10-26T02:20:08.660Z,9.97
2022-10-26T02:22:39.183Z,11.50
2022-10-26T02:25:11.902Z,10.15
2022-10-26T02:27:45.467Z,9.65
2022-10-26T02:30:13.517Z,11.30
2022-10-26T02:32:45.625Z,10.30
2022-10-26T02:35:14.572Z,9.85
2022-10-26T02:37:42.688Z,11.98
2022-10-26T02:40:14.353Z,13.48
2022-10-26T02:42:45.484Z,13.70
2022-10-26T02:45:18.113Z,11.90
2022-10-26T02:47:45.163Z,9.98
2022-10-26T02:50:12.164Z,11.95
2022-10-26T02:53:00.763Z,10.88
2022-10-26T02:55:50.217Z,12.77
2022-10-26T02:58:26.245Z,10.33
2022-10-26T03:00:54.226Z,9.38
2022-10-26T03:03:22.000Z,9.98
2022-10-26T03:05:48.765Z,9.48
2022-10-26T03:08:15.660Z,7.30
2022-10-26T03:10:44.472Z,6.50
2022-10-26T03:13:13.815Z,9.35
2022-10-26T03:15:40.714Z,11.75
2022-10-26T03:18:07.659Z,12.07
2022-10-26T03:20:34.518Z,11.82
2022-10-26T03:23:01.237Z,12.30
2022-10-26T03:25:28.003Z,11.70
2022-10-26T03:28:02.571Z,11.90
2022-10-26T03:30:30.951Z,9.20
2022-10-26T03:32:58.056Z,8.35
2022-10-26T03:35:24.882Z,8.87
2022-10-26T03:37:52.009Z,11.57
2022-10-26T03:40:19.105Z,10.70
2022-10-26T03:42:46.036Z,8.27
2022-10-26T03:45:12.867Z,10.25
2022-10-26T03:47:46.770Z,9.00
2022-10-26T03:50:15.653Z,9.38
2022-10-26T03:52:42.974Z,11.57
2022-10-26T03:55:10.630Z,11.23
2022-10-26T03:57:42.164Z,8.25
2022-10-26T04:00:14.357Z,8.50
2022-10-26T04:02:42.081Z,8.65
2022-10-26T04:05:09.546Z,12.10
2022-10-26T04:07:36.271Z,12.30
2022-10-26T04:10:03.191Z,12.13
2022-10-26T04:12:29.921Z,12.17
2022-10-26T04:14:56.836Z,12.35
2022-10-26T04:17:25.389Z,12.35
2022-10-26T04:19:52.113Z,13.13
2022-10-26T04:22:19.019Z,11.65
2022-10-26T04:24:45.743Z,9.73
2022-10-26T04:27:12.585Z,11.68
2022-10-26T04:29:39.325Z,12.30
2022-10-26T04:32:06.034Z,12.02
2022-10-26T04:34:33.033Z,13.15
2022-10-26T04:36:59.823Z,13.20
2022-10-26T04:39:26.519Z,13.65
2022-10-26T04:41:54.694Z,13.57
2022-10-26T04:44:21.472Z,13.13
2022-10-26T04:46:48.150Z,14.02
2022-10-26T04:49:14.875Z,13.10
2022-10-26T04:51:41.708Z,13.13
2022-10-26T04:54:08.510Z,10.93
2022-10-26T04:56:35.352Z,8.48
2022-10-26T04:59:02.213Z,8.77
2022-10-26T05:01:29.010Z,12.33
2022-10-26T05:03:55.724Z,11.57
2022-10-26T05:06:22.628Z,12.07
2022-10-26T05:08:49.614Z,12.43
2022-10-26T05:11:16.608Z,11.65
2022-10-26T05:13:43.352Z,10.60
2022-10-26T05:16:10.130Z,11.73
2022-10-26T05:18:36.834Z,12.40
2022-10-26T05:21:03.913Z,12.75
2022-10-26T05:23:30.696Z,14.40
2022-10-26T05:25:57.434Z,14.30
2022-10-26T05:28:24.464Z,15.30
2022-10-26T05:30:51.323Z,14.73
2022-10-26T05:33:17.989Z,14.85
2022-10-26T05:35:44.763Z,14.45
2022-10-26T05:38:16.959Z,14.47
2022-10-26T05:40:47.994Z,14.77
2022-10-26T05:43:14.726Z,15.45
2022-10-26T05:45:41.404Z,16.38
2022-10-26T05:48:08.234Z,17.55
2022-10-26T05:50:35.060Z,17.53
2022-10-26T05:53:01.935Z,17.73
2022-10-26T05:55:29.105Z,17.20
2022-10-26T05:57:56.071Z,16.50
2022-10-26T06:00:27.770Z,16.10
2022-10-26T06:06:01.654Z,15.77
2022-10-26T06:08:31.088Z,15.60
2022-10-26T06:10:58.657Z,16.23
2022-10-26T06:13:25.861Z,17.20
2022-10-26T06:16:18.384Z,15.93
2022-10-26T06:19:14.887Z,15.55
2022-10-26T06:21:57.038Z,16.63
2022-10-26T06:24:41.237Z,15.57
2022-10-26T06:27:39.040Z,15.05
2022-10-26T06:30:08.148Z,14.23
2022-10-26T06:32:34.920Z,13.02
2022-10-26T06:35:21.908Z,11.63
2022-10-26T06:37:50.248Z,12.68
2022-10-26T06:40:18.493Z,12.30
2022-10-26T06:42:45.604Z,13.97
2022-10-26T06:48:20.200Z,17.80
2022-10-26T06:50:51.922Z,17.40
2022-10-26T06:56:07.124Z,16.73
2022-10-26T06:58:36.436Z,17.58
2022-10-26T07:01:03.895Z,18.45
2022-10-26T07:03:30.718Z,17.95
2022-10-26T07:05:57.557Z,17.85
2022-10-26T07:08:24.502Z,19.07
2022-10-26T07:10:51.295Z,17.52
2022-10-26T07:13:18.973Z,17.15
2022-10-26T07:15:45.760Z,15.30
2022-10-26T07:18:12.520Z,14.70
2022-10-26T07:20:40.994Z,15.47
2022-10-26T07:23:09.650Z,15.88
2022-10-26T07:25:36.599Z,14.88
2022-10-26T07:28:03.402Z,15.10
2022-10-26T07:30:31.090Z,15.43
2022-10-26T07:33:06.588Z,14.73
2022-10-26T07:35:34.319Z,14.23
2022-10-26T07:38:01.682Z,15.48
2022-10-26T07:40:28.772Z,15.55
2022-10-26T07:43:00.279Z,14.75
2022-10-26T07:45:28.606Z,15.33
2022-10-26T07:47:55.906Z,15.38
2022-10-26T07:50:23.162Z,16.40
2022-10-26T07:52:50.792Z,16.85
2022-10-26T07:55:17.936Z,16.38
2022-10-26T07:57:44.975Z,16.57
2022-10-26T08:00:12.871Z,17.52
2022-10-26T08:02:39.667Z,16.90
2022-10-26T08:05:06.960Z,16.27
2022-10-26T08:07:33.779Z,16.80
2022-10-26T08:10:00.489Z,16.63
2022-10-26T08:12:27.339Z,15.80
2022-10-26T08:14:54.133Z,16.42
2022-10-26T08:17:21.001Z,15.60
2022-10-26T08:19:48.426Z,15.85
2022-10-26T08:24:47.000Z,15.90
2022-10-26T08:27:14.896Z,15.60
2022-10-26T08:29:42.013Z,15.85
2022-10-26T08:32:08.936Z,16.83
2022-10-26T08:34:35.779Z,16.43
2022-10-26T08:37:02.544Z,16.20
2022-10-26T08:39:29.335Z,16.77
2022-10-26T08:42:10.744Z,14.02
2022-10-26T08:44:41.550Z,15.88
2022-10-26T08:47:31.203Z,16.50
2022-10-26T08:50:10.535Z,17.60
2022-10-26T08:52:53.423Z,16.67
2022-10-26T08:55:26.420Z,15.55
2022-10-26T08:57:54.040Z,16.45
2022-10-26T09:00:22.985Z,14.10
2022-10-26T09:02:54.128Z,13.57
2022-10-26T09:05:36.771Z,14.15
2022-10-26T09:08:18.265Z,14.60
2022-10-26T09:10:51.015Z,15.82
2022-10-26T09:13:50.124Z,15.03
2022-10-26T09:16:50.769Z,13.27
2022-10-26T09:19:17.519Z,12.88
2022-10-26T09:22:04.762Z,14.30
2022-10-26T09:24:33.756Z,14.73
2022-10-26T09:27:17.507Z,14.53
2022-10-26T09:29:44.674Z,12.07
2022-10-26T09:32:19.012Z,13.10
2022-10-26T09:34:52.513Z,13.40
2022-10-26T09:37:25.642Z,12.25
2022-10-26T09:40:02.973Z,13.70
2022-10-26T09:42:45.149Z,12.57
2022-10-26T09:45:18.390Z,12.85
2022-10-26T09:47:51.302Z,11.68
2022-10-26T09:50:25.570Z,12.52
2022-10-26T09:52:52.631Z,11.67
2022-10-26T09:55:19.673Z,11.27
2022-10-26T09:57:48.864Z,11.15
2022-10-26T10:00:18.050Z,10.95
2022-10-26T10:02:49.828Z,10.07
2022-10-26T10:05:51.707Z,10.07
2022-10-26T10:08:27.350Z,9.68
2022-10-26T10:11:05.439Z,9.90
2022-10-26T10:13:35.374Z,9.60
2022-10-26T10:16:21.108Z,10.55
2022-10-26T10:18:56.798Z,10.00
2022-10-26T10:21:34.317Z,11.38
2022-10-26T10:24:01.217Z,10.88
2022-10-26T10:26:27.986Z,10.88
2022-10-26T10:28:59.768Z,10.73
2022-10-26T10:31:34.175Z,10.87
2022-10-26T10:34:01.002Z,10.52
2022-10-26T10:36:30.168Z,11.15
2022-10-26T10:38:57.247Z,10.43
2022-10-26T10:41:33.985Z,9.45
2022-10-26T10:44:07.569Z,9.00
2022-10-26T10:46:35.210Z,9.57
2022-10-26T10:49:05.337Z,10.52
2022-10-26T10:51:38.712Z,9.50
2022-10-26T10:54:07.507Z,9.60
2022-10-26T10:56:52.157Z,9.23
2022-10-26T10:59:39.836Z,9.63
2022-10-26T11:02:06.855Z,9.20
2022-10-26T11:04:39.626Z,8.70
2022-10-26T11:07:08.250Z,9.18
2022-10-26T11:09:38.919Z,8.10
2022-10-26T11:12:28.720Z,8.50
2022-10-26T11:15:12.913Z,8.15
2022-10-26T11:18:02.563Z,8.20
2022-10-26T11:20:31.436Z,8.45
2022-10-26T11:23:01.322Z,8.53
2022-10-26T11:25:46.746Z,9.27
2022-10-26T11:28:20.138Z,8.18
2022-10-26T11:30:55.092Z,8.25
2022-10-26T11:33:29.580Z,8.30
2022-10-26T11:36:23.021Z,9.27
2022-10-26T11:39:03.932Z,8.23
2022-10-26T11:42:17.842Z,8.18
2022-10-26T11:44:53.116Z,8.77
2022-10-26T11:47:37.533Z,8.60
2022-10-26T11:50:34.732Z,8.70
2022-10-26T11:53:19.404Z,8.65
2022-10-26T11:55:56.563Z,8.32
2022-10-26T11:58:28.546Z,8.52
2022-10-26T12:01:01.917Z,8.80
2022-10-26T12:03:34.789Z,8.60
2022-10-26T12:06:01.736Z,8.50
2022-10-26T12:08:42.619Z,8.68
2022-10-26T12:11:34.872Z,8.55
2022-10-26T12:14:26.582Z,8.10
2022-10-26T12:17:15.138Z,8.00
2022-10-26T12:19:56.215Z,8.10
2022-10-26T12:22:29.521Z,8.38
2022-10-26T12:25:29.865Z,8.10
2022-10-26T12:27:57.553Z,7.90
2022-10-26T12:30:33.781Z,7.83
2022-10-26T12:33:03.269Z,8.20
2022-10-26T12:35:41.789Z,8.20
2022-10-26T12:38:47.034Z,8.50
2022-10-26T12:41:23.910Z,8.23
2022-10-26T12:43:50.871Z,8.77
2022-10-26T12:46:17.567Z,8.10
2022-10-26T12:48:48.436Z,8.30
2022-10-26T12:51:21.118Z,8.75
2022-10-26T12:53:50.628Z,8.35
2022-10-26T12:56:24.684Z,8.57
2022-10-26T12:59:20.789Z,8.98
2022-10-26T13:02:08.814Z,8.32
2022-10-26T13:04:42.090Z,8.50
2022-10-26T13:07:19.168Z,8.50
2022-10-26T13:10:02.137Z,9.07
2022-10-26T13:12:38.622Z,7.93
2022-10-26T13:15:18.225Z,9.07
2022-10-26T13:17:58.414Z,8.48
2022-10-26T13:20:25.501Z,8.98
2022-10-26T13:22:52.788Z,8.13
2022-10-26T13:25:26.797Z,8.20
2022-10-26T13:28:33.847Z,8.48
2022-10-26T13:31:00.688Z,8.07
2022-10-26T13:33:37.899Z,8.38
2022-10-26T13:36:32.034Z,7.67
2022-10-26T13:39:04.416Z,7.20
2022-10-26T13:41:38.245Z,7.75
2022-10-26T13:44:08.669Z,7.18
2022-10-26T13:46:39.249Z,7.65
2022-10-26T13:49:27.989Z,7.10
2022-10-26T13:51:55.384Z,6.80
2022-10-26T13:54:42.570Z,6.78
2022-10-26T13:57:36.481Z,6.57
2022-10-26T14:00:16.176Z,6.60
2022-10-26T14:02:43.490Z,5.90
2022-10-26T14:05:12.510Z,5.90
2022-10-26T14:07:49.462Z,6.22
2022-10-26T14:10:40.601Z,6.75
2022-10-26T14:13:09.310Z,6.00
2022-10-26T14:15:36.897Z,5.70
2022-10-26T14:18:04.779Z,5.00
2022-10-26T14:20:32.445Z,4.93
2022-10-26T14:22:59.237Z,5.28
2022-10-26T14:25:41.746Z,5.32
2022-10-26T14:28:31.395Z,4.60
2022-10-26T14:31:21.234Z,5.50
2022-10-26T14:33:48.058Z,5.25
2022-10-26T14:36:16.388Z,5.45
2022-10-26T14:41:16.052Z,4.20
2022-10-26T14:43:45.226Z,4.80
2022-10-26T14:46:16.301Z,4.55
2022-10-26T14:48:55.720Z,5.07
2022-10-26T14:51:27.692Z,4.38
2022-10-26T14:53:59.649Z,4.40
2022-10-26T14:56:28.894Z,4.80
2022-10-26T14:58:56.814Z,4.75
2022-10-26T15:01:23.649Z,4.57
2022-10-26T15:03:55.837Z,4.72
2022-10-26T15:06:28.739Z,4.53
2022-10-26T15:08:59.862Z,4.55
2022-10-26T15:11:28.363Z,4.80
2022-10-26T15:13:56.622Z,5.47
2022-10-26T15:16:29.689Z,4.95
2022-10-26T15:19:08.116Z,4.90
2022-10-26T15:21:40.168Z,5.10
2022-10-26T15:24:28.197Z,5.03
2022-10-26T15:26:55.593Z,4.78
2022-10-26T15:29:34.137Z,4.57
2022-10-26T15:32:02.132Z,5.67
2022-10-26T15:34:29.025Z,5.22
2022-10-26T15:36:56.682Z,5.43
2022-10-26T15:39:27.793Z,4.47
2022-10-26T15:41:54.761Z,4.65
2022-10-26T15:44:22.555Z,4.50
2022-10-26T15:46:50.002Z,4.47
2022-10-26T15:49:21.466Z,4.93
2022-10-26T15:51:49.119Z,4.65
2022-10-26T15:54:16.395Z,4.72
2022-10-26T15:56:43.678Z,4.63
2022-10-26T15:59:18.558Z,4.28
2022-10-26T16:01:45.659Z,4.03
2022-10-26T16:04:12.549Z,4.50
2022-10-26T16:06:41.103Z,3.75
2022-10-26T16:09:19.990Z,4.00
2022-10-26T16:11:46.747Z,3.28
2022-10-26T16:14:13.641Z,3.20
2022-10-26T16:16:40.923Z,3.60
2022-10-26T16:19:30.291Z,3.38
2022-10-26T16:21:57.063Z,3.80
2022-10-26T16:24:24.108Z,3.20
2022-10-26T16:26:50.951Z,3.45
2022-10-26T16:29:17.796Z,3.05
2022-10-26T16:31:44.590Z,3.67
2022-10-26T16:34:11.405Z,2.90
2022-10-26T16:36:38.231Z,3.10
2022-10-26T16:50:00.949Z,2.90
2022-10-26T16:52:27.800Z,2.90
2022-10-26T16:54:54.712Z,3.13
2022-10-26T16:57:21.869Z,3.00
2022-10-26T16:59:48.707Z,3.58
2022-10-26T17:02:15.802Z,3.37
2022-10-26T17:04:42.795Z,3.70
2022-10-26T17:07:11.172Z,3.10
2022-10-26T17:09:38.440Z,3.35
2022-10-26T17:12:06.744Z,3.50
2022-10-26T17:14:33.632Z,3.33
2022-10-26T17:17:00.520Z,3.70
2022-10-26T17:19:27.315Z,3.55
2022-10-26T17:21:54.188Z,4.07
2022-10-26T17:24:21.147Z,3.55
2022-10-26T17:26:47.985Z,3.40
2022-10-26T17:29:14.921Z,3.30
2022-10-26T17:31:41.884Z,3.20
2022-10-26T17:34:08.716Z,3.53
2022-10-26T17:36:35.650Z,3.13
2022-10-26T17:39:02.684Z,3.73
2022-10-26T17:41:29.612Z,3.72
2022-10-26T17:43:56.400Z,3.95
2022-10-26T17:46:25.379Z,4.00
2022-10-26T17:48:57.571Z,3.90
2022-10-26T17:51:26.183Z,3.80
2022-10-26T17:53:54.112Z,3.63
2022-10-26T17:56:22.483Z,3.90
2022-10-26T17:58:53.513Z,3.92
2022-10-26T18:01:20.662Z,4.00
2022-10-26T18:03:47.599Z,4.07
2022-10-26T18:06:14.829Z,3.85
2022-10-26T18:08:41.627Z,4.38
2022-10-26T18:11:14.095Z,4.40
2022-10-26T18:13:42.599Z,4.00
2022-10-26T18:16:11.753Z,3.67
2022-10-26T18:18:40.138Z,4.00
2022-10-26T18:21:12.722Z,3.80
2022-10-26T18:23:39.679Z,3.70
2022-10-26T18:26:13.084Z,4.43
2022-10-26T18:28:41.061Z,3.57
2022-10-26T18:31:11.469Z,3.78
2022-10-26T18:33:39.000Z,3.70
2022-10-26T18:36:11.780Z,4.18
2022-10-26T18:38:39.567Z,4.10
2022-10-26T18:41:07.609Z,4.00
2022-10-26T18:43:34.510Z,3.72
2022-10-26T18:46:15.105Z,4.00
2022-10-26T18:48:44.672Z,4.70
2022-10-26T18:51:14.424Z,4.85
2022-10-26T18:53:42.355Z,5.07
2022-10-26T18:56:12.145Z,7.85
2022-10-26T18:58:41.212Z,10.35
2022-10-26T19:01:25.658Z,13.15
2022-10-26T19:04:03.929Z,13.60
2022-10-26T19:06:33.326Z,12.80
2022-10-26T19:09:00.909Z,14.60
2022-10-26T19:11:29.471Z,13.63
2022-10-26T19:13:56.932Z,11.65
2022-10-26T19:19:17.395Z,9.57
2022-10-26T19:21:45.993Z,8.13
2022-10-26T19:24:18.914Z,7.32
2022-10-26T19:26:46.379Z,7.47
2022-10-26T19:29:15.564Z,7.32
2022-10-26T19:31:44.173Z,7.47
2022-10-26T19:34:12.560Z,7.40
2022-10-26T19:36:39.359Z,7.95
2022-10-26T19:39:06.310Z,7.28
2022-10-26T19:41:33.099Z,8.13
2022-10-26T19:46:31.509Z,7.45
2022-10-26T19:49:02.295Z,6.93
2022-10-26T19:51:31.146Z,7.30
2022-10-26T19:54:02.141Z,7.32
2022-10-26T19:56:30.752Z,6.40
2022-10-26T19:58:57.533Z,6.25
2022-10-26T20:01:24.381Z,6.82
2022-10-26T20:03:51.749Z,6.10
2022-10-26T20:06:18.619Z,5.75
2022-10-26T20:08:47.824Z,5.03
2022-10-26T20:11:15.938Z,5.63
2022-10-26T20:13:44.677Z,6.13
2022-10-26T20:16:12.238Z,8.32
2022-10-26T20:18:42.536Z,6.85
2022-10-26T20:21:13.554Z,5.17
2022-10-26T20:23:41.359Z,4.38
2022-10-26T20:26:08.561Z,6.70
2022-10-26T20:28:35.390Z,5.85
2022-10-26T20:31:02.247Z,5.10
2022-10-26T20:33:31.457Z,6.10
2022-10-26T20:35:59.354Z,5.90
2022-10-26T20:38:27.105Z,6.25
2022-10-26T20:40:56.157Z,5.43
2022-10-26T20:43:24.152Z,5.78
2022-10-26T20:45:51.877Z,5.87
2022-10-26T20:48:19.368Z,5.90
2022-10-26T20:50:53.848Z,5.30
2022-10-26T20:53:44.236Z,5.30
2022-10-26T20:56:22.384Z,5.53
2022-10-26T20:58:56.004Z,5.60
2022-10-26T21:01:33.520Z,5.75
2022-10-26T21:04:02.901Z,6.15
2022-10-26T21:06:30.500Z,5.30
2022-10-26T21:08:57.636Z,6.53
2022-10-26T21:11:25.558Z,6.10
2022-10-26T21:13:53.966Z,6.07
2022-10-26T21:18:53.551Z,5.40
2022-10-26T21:21:20.701Z,4.93
2022-10-26T21:23:47.541Z,7.47
2022-10-26T21:26:14.366Z,6.03
2022-10-26T21:28:43.099Z,6.47
2022-10-26T21:31:11.875Z,6.43
2022-10-26T21:33:39.443Z,6.85
2022-10-26T21:36:09.310Z,6.27
2022-10-26T21:38:36.174Z,8.05
2022-10-26T21:41:07.863Z,7.03
2022-10-26T21:43:36.031Z,6.32
2022-10-26T21:46:03.905Z,5.95
2022-10-26T21:48:32.217Z,6.40
2022-10-26T21:51:01.892Z,6.00
2022-10-26T21:53:29.231Z,6.30
2022-10-26T21:56:03.908Z,5.63
2022-10-26T21:58:30.985Z,5.82
2022-10-26T22:01:06.069Z,7.20
2022-10-26T22:03:33.474Z,10.25
2022-10-26T22:06:00.966Z,9.88
2022-10-26T22:08:28.238Z,7.63
2022-10-26T22:10:55.576Z,5.82
2022-10-26T22:13:22.944Z,9.20
2022-10-26T22:16:00.214Z,9.43
2022-10-26T22:18:27.101Z,9.10
2022-10-26T22:21:00.427Z,9.07
2022-10-26T22:23:27.251Z,8.70
2022-10-26T22:25:54.188Z,10.60
2022-10-26T22:28:21.011Z,9.63
2022-10-26T22:30:47.843Z,8.35
2022-10-26T22:33:14.650Z,9.93
2022-10-26T22:35:41.491Z,8.75
2022-10-26T22:38:08.339Z,11.13
2022-10-26T22:40:35.163Z,10.32
2022-10-26T22:43:02.033Z,12.15
2022-10-26T22:45:28.787Z,11.77
2022-10-26T22:47:55.587Z,7.97
2022-10-26T22:50:22.482Z,7.93
2022-10-26T22:52:49.490Z,6.72
2022-10-26T22:55:16.526Z,6.70
2022-10-26T22:57:45.660Z,8.38
2022-10-26T23:00:13.560Z,8.18
2022-10-26T23:02:40.404Z,10.13
2022-10-26T23:05:07.945Z,10.23
2022-10-26T23:07:34.707Z,9.77
2022-10-26T23:10:01.450Z,9.15
2022-10-26T23:12:28.293Z,8.90
2022-10-26T23:14:55.043Z,8.33
2022-10-26T23:17:21.845Z,7.95
2022-10-26T23:19:48.774Z,6.65
2022-10-26T23:22:15.564Z,6.53
2022-10-26T23:24:42.363Z,5.97
2022-10-26T23:27:09.139Z,7.43
2022-10-26T23:29:35.998Z,8.25
2022-10-26T23:32:02.885Z,8.70
2022-10-26T23:34:29.795Z,10.02
2022-10-26T23:36:56.534Z,8.43
2022-10-26T23:39:23.415Z,6.97
2022-10-26T23:41:50.229Z,8.10
2022-10-26T23:44:16.994Z,10.13
2022-10-26T23:46:43.775Z,8.63
2022-10-26T23:49:10.515Z,10.20
2022-10-26T23:51:37.251Z,8.30
2022-10-26T23:54:04.146Z,6.72
2022-10-26T23:56:31.013Z,8.02
2022-10-26T23:58:57.774Z,10.32
